الصفحة الرئيسية
METAR-TAF:

METAR-TAF

مطار :

أرنهيم, هولندا

دائرة عرض: 52-04N, خط طول: 005-53E, ارتفاع: 48 متر

مراقبة الطقس الحالي

تاريخ ووقت الإصدار 14 دقيقة قبل الساعة 09:25UTC
ريح 5 عقدة من الغرب/الجنوب الغربي, الاتجاه يتراوح بين الجنوب/الجنوب الغربي و الشمال
درجة الحرارة 25°درجة مئوية
الرطوبة 47%
ضغط 1011 hPa
الرؤية 10 كم أو أكثر

METAR: EHDL 210925Z AUTO 24005KT 200V010 9999 NCD 25/13 Q1011 BLU

زمن: 11:39 (09:39 UTC)


TAF: مفقودة

أرصاد الطقس والتوقعات من أكثر من 4000 مطار (تقارير الطقس للمطار METAR والتنبؤ بالطقس بالمطارTAF).

المحطات المتاحة هي النقط الصفراء والحمراء على الخريطة.

حرك المؤشر فوق النقطة لمعرفة اسم المحطة.

ثم انقر لمعرفة أرصاد وتوقعات الطقس.

لتغيير الخارطة: اضغط على الأزرار الخضراء مع رمز الصليب الأسود للتكبير. على الزر الأخضر مع شرطة للتصغير، أو على الأسهم الخضراء للخرائط المجاورة.


METAR-TAF: